sensor_id;sensor_type;location;lat;lon;timestamp;pressure;altitude;pressure_sealevel;temperature;humidity
43217;BME280;60511;42.686;23.300;2022-12-07T00:01:12;94640.53;;;22.81;28.92
43217;BME280;60511;42.686;23.300;2022-12-07T00:03:13;94654.78;;;22.98;29.23
43217;BME280;60511;42.686;23.300;2022-12-07T00:05:13;94636.00;;;22.85;28.92
43217;BME280;60511;42.686;23.300;2022-12-07T00:07:14;94590.72;;;22.47;29.28
43217;BME280;60511;42.686;23.300;2022-12-07T00:09:16;94660.41;;;23.05;28.89
43217;BME280;60511;42.686;23.300;2022-12-07T00:11:21;94669.72;;;23.08;28.79
43217;BME280;60511;42.686;23.300;2022-12-07T00:13:22;94652.09;;;22.98;28.97
43217;BME280;60511;42.686;23.300;2022-12-07T00:15:25;94618.84;;;22.78;29.08
43217;BME280;60511;42.686;23.300;2022-12-07T00:17:26;94607.25;;;22.77;29.16
43217;BME280;60511;42.686;23.300;2022-12-07T00:19:27;94576.81;;;22.61;29.06
43217;BME280;60511;42.686;23.300;2022-12-07T00:21:30;94658.16;;;23.07;28.93
43217;BME280;60511;42.686;23.300;2022-12-07T00:23:31;94667.81;;;23.08;28.97
43217;BME280;60511;42.686;23.300;2022-12-07T00:25:31;94507.06;;;21.99;28.93
43217;BME280;60511;42.686;23.300;2022-12-07T00:27:32;94613.38;;;22.74;28.78
43217;BME280;60511;42.686;23.300;2022-12-07T00:29:32;94614.25;;;22.78;29.00
43217;BME280;60511;42.686;23.300;2022-12-07T00:31:35;94634.50;;;22.88;28.80
43217;BME280;60511;42.686;23.300;2022-12-07T00:33:38;94640.72;;;22.89;29.04
43217;BME280;60511;42.686;23.300;2022-12-07T00:35:39;94637.81;;;22.81;28.75
43217;BME280;60511;42.686;23.300;2022-12-07T00:37:39;94623.66;;;22.84;29.08
43217;BME280;60511;42.686;23.300;2022-12-07T00:39:39;94638.16;;;22.96;28.97
43217;BME280;60511;42.686;23.300;2022-12-07T00:41:40;94638.00;;;22.89;29.00
43217;BME280;60511;42.686;23.300;2022-12-07T00:43:41;94608.31;;;22.57;28.70
43217;BME280;60511;42.686;23.300;2022-12-07T00:45:42;94611.19;;;22.80;28.86
43217;BME280;60511;42.686;23.300;2022-12-07T00:47:43;94642.88;;;22.99;28.92
43217;BME280;60511;42.686;23.300;2022-12-07T00:49:43;94604.91;;;22.76;29.01
43217;BME280;60511;42.686;23.300;2022-12-07T00:51:43;94651.41;;;23.01;29.03
43217;BME280;60511;42.686;23.300;2022-12-07T00:53:44;94626.41;;;22.88;28.97
43217;BME280;60511;42.686;23.300;2022-12-07T00:55:45;94600.56;;;22.71;28.96
43217;BME280;60511;42.686;23.300;2022-12-07T00:57:45;94617.97;;;22.90;28.96
43217;BME280;60511;42.686;23.300;2022-12-07T00:59:46;94569.78;;;22.56;28.90
43217;BME280;60511;42.686;23.300;2022-12-07T01:01:46;94601.88;;;22.77;28.91
43217;BME280;60511;42.686;23.300;2022-12-07T01:03:47;94664.84;;;23.13;28.81
43217;BME280;60511;42.686;23.300;2022-12-07T01:05:52;94525.13;;;22.27;28.80
43217;BME280;60511;42.686;23.300;2022-12-07T01:07:52;94639.81;;;23.00;28.81
43217;BME280;60511;42.686;23.300;2022-12-07T01:09:53;94629.47;;;22.86;28.98
43217;BME280;60511;42.686;23.300;2022-12-07T01:11:53;94616.84;;;22.91;29.17
43217;BME280;60511;42.686;23.300;2022-12-07T01:13:56;94621.00;;;22.88;28.79
43217;BME280;60511;42.686;23.300;2022-12-07T01:15:58;94643.16;;;23.10;29.02
43217;BME280;60511;42.686;23.300;2022-12-07T01:17:59;94608.91;;;22.82;28.91
43217;BME280;60511;42.686;23.300;2022-12-07T01:20:00;94629.53;;;22.90;29.16
43217;BME280;60511;42.686;23.300;2022-12-07T01:22:01;94613.44;;;22.94;29.38
43217;BME280;60511;42.686;23.300;2022-12-07T01:24:02;94642.38;;;23.09;29.04
43217;BME280;60511;42.686;23.300;2022-12-07T01:26:06;94502.44;;;22.28;29.50
43217;BME280;60511;42.686;23.300;2022-12-07T01:28:07;94556.72;;;22.58;29.25
43217;BME280;60511;42.686;23.300;2022-12-07T01:30:08;94583.31;;;22.76;29.12
43217;BME280;60511;42.686;23.300;2022-12-07T01:32:10;94559.13;;;22.63;29.26
43217;BME280;60511;42.686;23.300;2022-12-07T01:34:10;94579.84;;;22.75;29.12
43217;BME280;60511;42.686;23.300;2022-12-07T01:36:17;94575.16;;;22.72;29.04
43217;BME280;60511;42.686;23.300;2022-12-07T01:38:18;94607.88;;;22.86;29.35
43217;BME280;60511;42.686;23.300;2022-12-07T01:40:18;94640.03;;;23.08;29.30
43217;BME280;60511;42.686;23.300;2022-12-07T01:42:19;94583.69;;;22.74;29.06
43217;BME280;60511;42.686;23.300;2022-12-07T01:46:20;94571.41;;;22.61;29.00
43217;BME280;60511;42.686;23.300;2022-12-07T01:48:25;94511.72;;;22.31;29.15
43217;BME280;60511;42.686;23.300;2022-12-07T01:50:28;94580.38;;;22.65;29.29
43217;BME280;60511;42.686;23.300;2022-12-07T01:52:33;94561.25;;;22.54;28.99
43217;BME280;60511;42.686;23.300;2022-12-07T01:54:35;94601.63;;;22.82;29.12
43217;BME280;60511;42.686;23.300;2022-12-07T01:56:37;94600.91;;;22.85;29.00
43217;BME280;60511;42.686;23.300;2022-12-07T01:58:39;94608.38;;;22.92;29.11
43217;BME280;60511;42.686;23.300;2022-12-07T02:00:40;94559.56;;;22.65;29.07
43217;BME280;60511;42.686;23.300;2022-12-07T02:02:48;94599.50;;;22.92;29.10
43217;BME280;60511;42.686;23.300;2022-12-07T02:04:52;94390.47;;;21.55;29.08
43217;BME280;60511;42.686;23.300;2022-12-07T02:06:54;94595.59;;;22.89;28.93
43217;BME280;60511;42.686;23.300;2022-12-07T02:08:55;94551.22;;;22.55;28.70
43217;BME280;60511;42.686;23.300;2022-12-07T02:10:55;94596.22;;;22.82;29.01
43217;BME280;60511;42.686;23.300;2022-12-07T02:13:00;94515.56;;;22.30;28.80
43217;BME280;60511;42.686;23.300;2022-12-07T02:15:02;94602.84;;;22.85;28.67
43217;BME280;60511;42.686;23.300;2022-12-07T02:17:14;94608.13;;;22.97;29.10
43217;BME280;60511;42.686;23.300;2022-12-07T02:21:50;94583.16;;;22.69;28.92
43217;BME280;60511;42.686;23.300;2022-12-07T02:24:05;94610.75;;;22.94;29.18
43217;BME280;60511;42.686;23.300;2022-12-07T02:27:09;94599.94;;;22.94;28.98
43217;BME280;60511;42.686;23.300;2022-12-07T02:29:25;94563.50;;;22.68;29.10
43217;BME280;60511;42.686;23.300;2022-12-07T02:31:27;94601.09;;;22.93;28.91
43217;BME280;60511;42.686;23.300;2022-12-07T02:33:33;94609.97;;;22.93;29.38
43217;BME280;60511;42.686;23.300;2022-12-07T02:40:10;94593.09;;;22.80;29.36
43217;BME280;60511;42.686;23.300;2022-12-07T02:42:17;94583.69;;;22.74;29.04
43217;BME280;60511;42.686;23.300;2022-12-07T02:44:23;94571.59;;;22.68;29.01
43217;BME280;60511;42.686;23.300;2022-12-07T02:46:28;94579.84;;;22.75;29.11
43217;BME280;60511;42.686;23.300;2022-12-07T02:48:31;94564.63;;;22.67;29.20
43217;BME280;60511;42.686;23.300;2022-12-07T02:50:33;94541.06;;;22.48;29.12
43217;BME280;60511;42.686;23.300;2022-12-07T02:52:33;94526.16;;;22.38;29.05
43217;BME280;60511;42.686;23.300;2022-12-07T02:54:34;94607.94;;;22.90;29.00
43217;BME280;60511;42.686;23.300;2022-12-07T02:56:46;94588.72;;;22.92;29.00
43217;BME280;60511;42.686;23.300;2022-12-07T02:59:31;94587.16;;;22.91;28.95
43217;BME280;60511;42.686;23.300;2022-12-07T03:03:37;94582.03;;;22.85;29.33
43217;BME280;60511;42.686;23.300;2022-12-07T03:07:51;94579.06;;;22.91;29.06
43217;BME280;60511;42.686;23.300;2022-12-07T03:10:19;94554.44;;;22.76;29.14
43217;BME280;60511;42.686;23.300;2022-12-07T03:12:29;94549.59;;;22.66;29.42
43217;BME280;60511;42.686;23.300;2022-12-07T03:14:35;94557.31;;;22.67;29.41
43217;BME280;60511;42.686;23.300;2022-12-07T03:16:53;94576.63;;;22.85;29.06
43217;BME280;60511;42.686;23.300;2022-12-07T03:19:05;94557.94;;;22.61;29.28
43217;BME280;60511;42.686;23.300;2022-12-07T03:21:11;94576.09;;;22.80;29.25
43217;BME280;60511;42.686;23.300;2022-12-07T03:23:14;94526.53;;;22.53;29.37
43217;BME280;60511;42.686;23.300;2022-12-07T03:25:17;94570.69;;;22.80;29.44
43217;BME280;60511;42.686;23.300;2022-12-07T03:27:39;94573.59;;;22.87;29.11
43217;BME280;60511;42.686;23.300;2022-12-07T03:29:56;94543.31;;;22.62;29.20
43217;BME280;60511;42.686;23.300;2022-12-07T03:32:03;94556.88;;;22.65;29.07
43217;BME280;60511;42.686;23.300;2022-12-07T03:36:22;94579.16;;;22.78;29.04
43217;BME280;60511;42.686;23.300;2022-12-07T03:38:39;94591.59;;;22.83;29.01
43217;BME280;60511;42.686;23.300;2022-12-07T03:42:56;94546.69;;;22.59;29.17
43217;BME280;60511;42.686;23.300;2022-12-07T03:45:03;94540.09;;;22.56;29.46
43217;BME280;60511;42.686;23.300;2022-12-07T03:47:22;94580.03;;;22.82;29.42
43217;BME280;60511;42.686;23.300;2022-12-07T03:49:29;94559.50;;;22.62;29.12
43217;BME280;60511;42.686;23.300;2022-12-07T03:51:41;94538.44;;;22.52;29.21
43217;BME280;60511;42.686;23.300;2022-12-07T03:56:04;94590.03;;;22.82;28.98
43217;BME280;60511;42.686;23.300;2022-12-07T03:58:15;94530.59;;;22.46;29.53
43217;BME280;60511;42.686;23.300;2022-12-07T04:00:17;94561.25;;;22.70;29.42
43217;BME280;60511;42.686;23.300;2022-12-07T04:02:18;94533.13;;;22.55;29.22
43217;BME280;60511;42.686;23.300;2022-12-07T04:04:21;94473.59;;;22.16;29.34
43217;BME280;60511;42.686;23.300;2022-12-07T04:06:21;94544.09;;;22.62;29.20
43217;BME280;60511;42.686;23.300;2022-12-07T04:08:22;94510.97;;;22.46;29.27
43217;BME280;60511;42.686;23.300;2022-12-07T04:10:22;94524.88;;;22.48;29.25
43217;BME280;60511;42.686;23.300;2022-12-07T04:12:23;94553.84;;;22.67;29.12
43217;BME280;60511;42.686;23.300;2022-12-07T04:14:23;94529.84;;;22.62;29.49
43217;BME280;60511;42.686;23.300;2022-12-07T04:16:24;94535.91;;;22.59;29.21
43217;BME280;60511;42.686;23.300;2022-12-07T04:18:25;94569.69;;;22.84;29.59
43217;BME280;60511;42.686;23.300;2022-12-07T04:20:26;94571.84;;;22.79;29.45
43217;BME280;60511;42.686;23.300;2022-12-07T04:22:26;94562.03;;;22.71;29.42
43217;BME280;60511;42.686;23.300;2022-12-07T04:24:27;94552.34;;;22.70;29.06
43217;BME280;60511;42.686;23.300;2022-12-07T04:26:27;94530.84;;;22.57;29.21
43217;BME280;60511;42.686;23.300;2022-12-07T04:28:28;94546.78;;;22.62;29.24
43217;BME280;60511;42.686;23.300;2022-12-07T04:30:28;94551.31;;;22.58;29.18
43217;BME280;60511;42.686;23.300;2022-12-07T04:32:28;94544.44;;;22.61;29.15
43217;BME280;60511;42.686;23.300;2022-12-07T04:34:29;94562.38;;;22.69;29.14
43217;BME280;60511;42.686;23.300;2022-12-07T04:36:30;94543.91;;;22.55;29.00
43217;BME280;60511;42.686;23.300;2022-12-07T04:38:30;94546.69;;;22.59;29.11
43217;BME280;60511;42.686;23.300;2022-12-07T04:40:32;94500.41;;;22.25;29.06
43217;BME280;60511;42.686;23.300;2022-12-07T04:42:32;94521.66;;;22.42;28.84
43217;BME280;60511;42.686;23.300;2022-12-07T04:44:33;94528.69;;;22.47;28.99
43217;BME280;60511;42.686;23.300;2022-12-07T04:46:34;94484.66;;;22.11;29.09
43217;BME280;60511;42.686;23.300;2022-12-07T04:48:34;94537.59;;;22.48;28.96
43217;BME280;60511;42.686;23.300;2022-12-07T04:50:35;94545.75;;;22.51;29.01
43217;BME280;60511;42.686;23.300;2022-12-07T04:52:35;94557.50;;;22.59;29.18
43217;BME280;60511;42.686;23.300;2022-12-07T04:54:35;94531.38;;;22.47;29.05
43217;BME280;60511;42.686;23.300;2022-12-07T04:56:36;94537.22;;;22.49;29.46
43217;BME280;60511;42.686;23.300;2022-12-07T04:58:36;94548.28;;;22.60;29.11
43217;BME280;60511;42.686;23.300;2022-12-07T05:00:37;94544.09;;;22.46;29.15
43217;BME280;60511;42.686;23.300;2022-12-07T05:02:37;94560.97;;;22.59;28.97
43217;BME280;60511;42.686;23.300;2022-12-07T05:04:37;94569.94;;;22.63;29.28
43217;BME280;60511;42.686;23.300;2022-12-07T05:06:38;94547.66;;;22.51;29.04
43217;BME280;60511;42.686;23.300;2022-12-07T05:08:38;94544.63;;;22.52;29.48
43217;BME280;60511;42.686;23.300;2022-12-07T05:10:39;94575.41;;;22.67;29.67
43217;BME280;60511;42.686;23.300;2022-12-07T05:12:39;94539.47;;;22.47;29.39
43217;BME280;60511;42.686;23.300;2022-12-07T05:14:40;94567.22;;;22.63;29.30
43217;BME280;60511;42.686;23.300;2022-12-07T05:16:42;94516.34;;;22.30;29.28
43217;BME280;60511;42.686;23.300;2022-12-07T05:18:43;94532.44;;;22.42;29.41
43217;BME280;60511;42.686;23.300;2022-12-07T05:20:43;94537.22;;;22.49;29.30
43217;BME280;60511;42.686;23.300;2022-12-07T05:22:44;94507.38;;;22.26;29.49
43217;BME280;60511;42.686;23.300;2022-12-07T05:24:44;94535.41;;;22.37;29.37
43217;BME280;60511;42.686;23.300;2022-12-07T05:26:45;94448.19;;;21.70;29.37
43217;BME280;60511;42.686;23.300;2022-12-07T05:28:50;94554.34;;;22.57;29.42
43217;BME280;60511;42.686;23.300;2022-12-07T05:30:51;94547.13;;;22.45;29.24
43217;BME280;60511;42.686;23.300;2022-12-07T05:32:51;94540.63;;;22.46;29.36
43217;BME280;60511;42.686;23.300;2022-12-07T05:34:52;94555.31;;;22.49;29.23
43217;BME280;60511;42.686;23.300;2022-12-07T05:36:54;94543.31;;;22.46;29.34
43217;BME280;60511;42.686;23.300;2022-12-07T05:38:55;94572.91;;;22.74;29.78
43217;BME280;60511;42.686;23.300;2022-12-07T05:40:55;94539.31;;;22.40;29.31
43217;BME280;60511;42.686;23.300;2022-12-07T05:42:59;94540.38;;;22.35;29.35
43217;BME280;60511;42.686;23.300;2022-12-07T05:44:59;94470.13;;;22.00;29.40
43217;BME280;60511;42.686;23.300;2022-12-07T05:47:00;94525.94;;;22.43;29.45
43217;BME280;60511;42.686;23.300;2022-12-07T05:49:01;94553.75;;;22.63;29.34
43217;BME280;60511;42.686;23.300;2022-12-07T05:51:02;94558.97;;;22.56;29.37
43217;BME280;60511;42.686;23.300;2022-12-07T05:53:02;94511.47;;;22.36;29.34
43217;BME280;60511;42.686;23.300;2022-12-07T05:55:02;94526.69;;;22.44;29.73
43217;BME280;60511;42.686;23.300;2022-12-07T05:57:04;94548.09;;;22.53;29.37
43217;BME280;60511;42.686;23.300;2022-12-07T05:59:04;94541.13;;;22.36;29.39
43217;BME280;60511;42.686;23.300;2022-12-07T06:01:23;94536.34;;;22.45;29.35
43217;BME280;60511;42.686;23.300;2022-12-07T06:03:23;94524.19;;;22.35;29.35
43217;BME280;60511;42.686;23.300;2022-12-07T06:05:25;94530.19;;;22.44;29.44
43217;BME280;60511;42.686;23.300;2022-12-07T06:07:25;94532.53;;;22.46;29.35
43217;BME280;60511;42.686;23.300;2022-12-07T06:09:27;94462.56;;;22.05;29.46
43217;BME280;60511;42.686;23.300;2022-12-07T06:11:28;94517.31;;;22.38;29.33
43217;BME280;60511;42.686;23.300;2022-12-07T06:13:46;94561.84;;;22.63;29.53
43217;BME280;60511;42.686;23.300;2022-12-07T06:15:47;94479.50;;;22.06;29.53
43217;BME280;60511;42.686;23.300;2022-12-07T06:17:47;94572.03;;;22.70;29.56
43217;BME280;60511;42.686;23.300;2022-12-07T06:19:48;94586.47;;;22.78;29.46
43217;BME280;60511;42.686;23.300;2022-12-07T06:21:49;94580.28;;;22.77;29.62
43217;BME280;60511;42.686;23.300;2022-12-07T06:23:49;94581.44;;;22.76;29.48
43217;BME280;60511;42.686;23.300;2022-12-07T06:25:49;94424.91;;;21.77;29.64
43217;BME280;60511;42.686;23.300;2022-12-07T06:27:50;94554.44;;;22.60;29.23
43217;BME280;60511;42.686;23.300;2022-12-07T06:29:50;94574.88;;;22.77;29.43
43217;BME280;60511;42.686;23.300;2022-12-07T06:31:51;94564.09;;;22.61;29.63
43217;BME280;60511;42.686;23.300;2022-12-07T06:33:51;94554.34;;;22.57;29.72
43217;BME280;60511;42.686;23.300;2022-12-07T06:35:51;94537.50;;;22.44;29.34
43217;BME280;60511;42.686;23.300;2022-12-07T06:37:52;94554.53;;;22.48;29.41
43217;BME280;60511;42.686;23.300;2022-12-07T06:39:52;94591.25;;;22.69;29.17
43217;BME280;60511;42.686;23.300;2022-12-07T06:41:53;94570.19;;;22.58;29.18
43217;BME280;60511;42.686;23.300;2022-12-07T06:43:54;94566.09;;;22.49;29.20
43217;BME280;60511;42.686;23.300;2022-12-07T06:45:55;94435.75;;;21.65;29.40
43217;BME280;60511;42.686;23.300;2022-12-07T06:47:55;94540.59;;;22.30;29.07
43217;BME280;60511;42.686;23.300;2022-12-07T06:49:55;94579.59;;;22.49;29.04
43217;BME280;60511;42.686;23.300;2022-12-07T06:51:56;94562.00;;;22.39;29.21
43217;BME280;60511;42.686;23.300;2022-12-07T06:53:56;94608.06;;;22.62;29.06
43217;BME280;60511;42.686;23.300;2022-12-07T06:55:57;94545.56;;;22.28;29.41
43217;BME280;60511;42.686;23.300;2022-12-07T06:57:57;94582.13;;;22.41;29.26
43217;BME280;60511;42.686;23.300;2022-12-07T06:59:58;94567.31;;;22.35;29.44
43217;BME280;60511;42.686;23.300;2022-12-07T07:01:58;94568.78;;;22.33;29.65
43217;BME280;60511;42.686;23.300;2022-12-07T07:03:58;94538.31;;;22.16;29.56
43217;BME280;60511;42.686;23.300;2022-12-07T07:05:59;94553.78;;;22.19;29.46
43217;BME280;60511;42.686;23.300;2022-12-07T07:07:59;94545.34;;;22.21;29.71
43217;BME280;60511;42.686;23.300;2022-12-07T07:10:00;94579.66;;;22.36;29.82
43217;BME280;60511;42.686;23.300;2022-12-07T07:12:00;94577.41;;;22.38;29.64
43217;BME280;60511;42.686;23.300;2022-12-07T07:14:01;94578.97;;;22.23;29.81
43217;BME280;60511;42.686;23.300;2022-12-07T07:16:02;94584.63;;;22.34;29.82
43217;BME280;60511;42.686;23.300;2022-12-07T07:18:03;94600.72;;;22.46;29.78
43217;BME280;60511;42.686;23.300;2022-12-07T07:20:04;94579.56;;;22.33;29.80
43217;BME280;60511;42.686;23.300;2022-12-07T07:22:04;94595.94;;;22.40;30.25
43217;BME280;60511;42.686;23.300;2022-12-07T07:24:05;94577.59;;;22.30;30.15
43217;BME280;60511;42.686;23.300;2022-12-07T07:26:06;94584.44;;;22.43;30.03
43217;BME280;60511;42.686;23.300;2022-12-07T07:28:06;94600.94;;;22.54;30.30
43217;BME280;60511;42.686;23.300;2022-12-07T07:30:07;94592.47;;;22.39;30.47
43217;BME280;60511;42.686;23.300;2022-12-07T07:32:08;94551.72;;;22.29;30.47
43217;BME280;60511;42.686;23.300;2022-12-07T07:34:08;94586.28;;;22.39;31.61
43217;BME280;60511;42.686;23.300;2022-12-07T07:36:09;94554.78;;;22.27;31.08
43217;BME280;60511;42.686;23.300;2022-12-07T07:38:09;94552.03;;;22.11;32.41
43217;BME280;60511;42.686;23.300;2022-12-07T07:40:10;94561.75;;;22.28;32.06
43217;BME280;60511;42.686;23.300;2022-12-07T07:42:10;94441.03;;;21.61;31.88
43217;BME280;60511;42.686;23.300;2022-12-07T07:44:11;94602.72;;;22.65;31.92
43217;BME280;60511;42.686;23.300;2022-12-07T07:46:11;94570.53;;;22.57;33.26
43217;BME280;60511;42.686;23.300;2022-12-07T07:48:12;94602.06;;;22.69;32.98
43217;BME280;60511;42.686;23.300;2022-12-07T07:50:12;94566.00;;;22.45;33.42
43217;BME280;60511;42.686;23.300;2022-12-07T07:52:13;94488.09;;;21.96;33.31
43217;BME280;60511;42.686;23.300;2022-12-07T07:54:13;94568.63;;;22.41;33.54
43217;BME280;60511;42.686;23.300;2022-12-07T07:56:14;94585.94;;;22.56;33.33
43217;BME280;60511;42.686;23.300;2022-12-07T07:58:14;94561.00;;;22.43;32.73
43217;BME280;60511;42.686;23.300;2022-12-07T08:00:15;94568.13;;;22.52;32.30
43217;BME280;60511;42.686;23.300;2022-12-07T08:02:17;94595.16;;;22.71;32.21
43217;BME280;60511;42.686;23.300;2022-12-07T08:04:18;94568.91;;;22.52;31.81
43217;BME280;60511;42.686;23.300;2022-12-07T08:06:19;94580.03;;;22.51;31.73
43217;BME280;60511;42.686;23.300;2022-12-07T08:08:19;94604.94;;;22.60;31.76
43217;BME280;60511;42.686;23.300;2022-12-07T08:10:19;94606.75;;;22.72;31.59
43217;BME280;60511;42.686;23.300;2022-12-07T08:12:20;94545.06;;;22.38;31.91
43217;BME280;60511;42.686;23.300;2022-12-07T08:14:20;94557.41;;;22.39;31.74
43217;BME280;60511;42.686;23.300;2022-12-07T08:16:21;94578.38;;;22.46;31.31
43217;BME280;60511;42.686;23.300;2022-12-07T08:18:21;94548.53;;;22.39;31.54
43217;BME280;60511;42.686;23.300;2022-12-07T08:20:22;94560.28;;;22.46;31.40
43217;BME280;60511;42.686;23.300;2022-12-07T08:22:22;94596.22;;;22.66;31.42
43217;BME280;60511;42.686;23.300;2022-12-07T08:24:23;94604.75;;;22.69;31.26
43217;BME280;60511;42.686;23.300;2022-12-07T08:26:23;94450.28;;;21.76;31.51
43217;BME280;60511;42.686;23.300;2022-12-07T08:28:24;94582.47;;;22.56;31.39
43217;BME280;60511;42.686;23.300;2022-12-07T08:30:24;94576.66;;;22.54;31.33
43217;BME280;60511;42.686;23.300;2022-12-07T08:32:24;94599.34;;;22.69;31.26
43217;BME280;60511;42.686;23.300;2022-12-07T08:34:25;94578.47;;;22.50;31.26
43217;BME280;60511;42.686;23.300;2022-12-07T08:36:26;94611.34;;;22.71;31.07
43217;BME280;60511;42.686;23.300;2022-12-07T08:38:26;94549.91;;;22.33;31.15
43217;BME280;60511;42.686;23.300;2022-12-07T08:40:26;94579.34;;;22.54;31.16
43217;BME280;60511;42.686;23.300;2022-12-07T08:42:27;94527.28;;;22.21;31.20
43217;BME280;60511;42.686;23.300;2022-12-07T08:44:30;94596.66;;;22.69;30.94
43217;BME280;60511;42.686;23.300;2022-12-07T08:48:36;94563.84;;;22.51;31.03
43217;BME280;60511;42.686;23.300;2022-12-07T08:50:38;94540.88;;;22.41;31.07
43217;BME280;60511;42.686;23.300;2022-12-07T08:52:40;94573.25;;;22.57;30.89
43217;BME280;60511;42.686;23.300;2022-12-07T08:54:41;94542.00;;;22.40;30.99
43217;BME280;60511;42.686;23.300;2022-12-07T08:56:44;94541.31;;;22.43;31.25
43217;BME280;60511;42.686;23.300;2022-12-07T08:58:45;94519.38;;;22.29;31.04
43217;BME280;60511;42.686;23.300;2022-12-07T09:00:45;94545.69;;;22.48;31.05
43217;BME280;60511;42.686;23.300;2022-12-07T09:02:46;94509.84;;;22.19;30.85
43217;BME280;60511;42.686;23.300;2022-12-07T09:04:46;94528.78;;;22.35;30.94
43217;BME280;60511;42.686;23.300;2022-12-07T09:06:47;94535.31;;;22.50;30.73
43217;BME280;60511;42.686;23.300;2022-12-07T09:08:50;94532.53;;;22.46;30.83
43217;BME280;60511;42.686;23.300;2022-12-07T09:10:51;94538.88;;;22.54;30.90
43217;BME280;60511;42.686;23.300;2022-12-07T09:12:51;94555.56;;;22.59;30.77
43217;BME280;60511;42.686;23.300;2022-12-07T09:14:52;94552.19;;;22.62;30.82
43217;BME280;60511;42.686;23.300;2022-12-07T09:16:52;94557.59;;;22.62;30.55
43217;BME280;60511;42.686;23.300;2022-12-07T09:18:52;94525.94;;;22.43;30.55
43217;BME280;60511;42.686;23.300;2022-12-07T09:20:53;94549.41;;;22.59;30.91
43217;BME280;60511;42.686;23.300;2022-12-07T09:22:53;94563.31;;;22.61;30.63
43217;BME280;60511;42.686;23.300;2022-12-07T09:24:54;94564.19;;;22.65;30.93
43217;BME280;60511;42.686;23.300;2022-12-07T09:26:54;94530.88;;;22.41;30.76
43217;BME280;60511;42.686;23.300;2022-12-07T09:28:54;94542.00;;;22.56;30.65
43217;BME280;60511;42.686;23.300;2022-12-07T09:30:55;94529.56;;;22.51;30.70
43217;BME280;60511;42.686;23.300;2022-12-07T09:32:56;94525.75;;;22.52;30.52
43217;BME280;60511;42.686;23.300;2022-12-07T09:34:57;94466.22;;;22.13;30.50
43217;BME280;60511;42.686;23.300;2022-12-07T09:36:57;94506.00;;;22.48;30.40
43217;BME280;60511;42.686;23.300;2022-12-07T09:38:58;94551.56;;;22.69;30.42
43217;BME280;60511;42.686;23.300;2022-12-07T09:41:04;94509.75;;;22.43;30.65
43217;BME280;60511;42.686;23.300;2022-12-07T09:43:21;94497.28;;;22.39;30.64
43217;BME280;60511;42.686;23.300;2022-12-07T09:45:24;94522.69;;;22.54;30.33
43217;BME280;60511;42.686;23.300;2022-12-07T09:47:27;94512.16;;;22.49;30.43
43217;BME280;60511;42.686;23.300;2022-12-07T09:49:31;94504.84;;;22.49;30.49
43217;BME280;60511;42.686;23.300;2022-12-07T09:51:32;94503.38;;;22.52;30.57
43217;BME280;60511;42.686;23.300;2022-12-07T09:53:39;94530.75;;;22.70;30.48
43217;BME280;60511;42.686;23.300;2022-12-07T09:55:40;94508.34;;;22.50;30.47
43217;BME280;60511;42.686;23.300;2022-12-07T09:57:42;94517.56;;;22.64;30.49
43217;BME280;60511;42.686;23.300;2022-12-07T09:59:43;94515.63;;;22.65;30.31
43217;BME280;60511;42.686;23.300;2022-12-07T10:01:45;94513.22;;;22.60;30.27
43217;BME280;60511;42.686;23.300;2022-12-07T10:03:55;94526.16;;;22.70;30.25
43217;BME280;60511;42.686;23.300;2022-12-07T10:05:59;94509.22;;;22.54;30.16
43217;BME280;60511;42.686;23.300;2022-12-07T10:08:00;94512.16;;;22.64;30.19
43217;BME280;60511;42.686;23.300;2022-12-07T10:10:03;94528.50;;;22.72;30.26
43217;BME280;60511;42.686;23.300;2022-12-07T10:12:09;94517.69;;;22.72;30.27
43217;BME280;60511;42.686;23.300;2022-12-07T10:14:13;94509.97;;;22.70;30.24
43217;BME280;60511;42.686;23.300;2022-12-07T10:18:35;94509.28;;;22.73;30.06
43217;BME280;60511;42.686;23.300;2022-12-07T10:20:36;94491.97;;;22.74;30.06
43217;BME280;60511;42.686;23.300;2022-12-07T10:22:37;94491.78;;;22.67;30.19
43217;BME280;60511;42.686;23.300;2022-12-07T10:24:39;94486.31;;;22.63;30.27
43217;BME280;60511;42.686;23.300;2022-12-07T10:28:47;94489.50;;;22.69;30.42
43217;BME280;60511;42.686;23.300;2022-12-07T10:30:52;94486.91;;;22.73;30.37
43217;BME280;60511;42.686;23.300;2022-12-07T10:32:53;94440.84;;;22.46;30.32
43217;BME280;60511;42.686;23.300;2022-12-07T10:35:24;94476.47;;;22.71;30.41
43217;BME280;60511;42.686;23.300;2022-12-07T10:37:25;94449.34;;;22.48;30.17
43217;BME280;60511;42.686;23.300;2022-12-07T10:39:28;94451.84;;;22.57;30.23
43217;BME280;60511;42.686;23.300;2022-12-07T10:41:28;94449.25;;;22.60;30.40
43217;BME280;60511;42.686;23.300;2022-12-07T10:43:29;94440.97;;;22.53;30.00
43217;BME280;60511;42.686;23.300;2022-12-07T10:45:29;94466.81;;;22.70;30.08
43217;BME280;60511;42.686;23.300;2022-12-07T10:48:27;94425.97;;;22.36;29.99
43217;BME280;60511;42.686;23.300;2022-12-07T10:59:18;94461.03;;;22.72;30.23
43217;BME280;60511;42.686;23.300;2022-12-07T11:01:35;94442.97;;;22.72;30.43
43217;BME280;60511;42.686;23.300;2022-12-07T11:03:53;94434.78;;;22.69;30.03
43217;BME280;60511;42.686;23.300;2022-12-07T11:10:48;94436.00;;;22.71;30.04
43217;BME280;60511;42.686;23.300;2022-12-07T11:15:01;94460.28;;;22.71;30.40
43217;BME280;60511;42.686;23.300;2022-12-07T11:17:20;94431.38;;;22.72;30.07
43217;BME280;60511;42.686;23.300;2022-12-07T11:21:48;94400.47;;;22.50;30.15
43217;BME280;60511;42.686;23.300;2022-12-07T11:24:19;94412.78;;;22.66;30.17
43217;BME280;60511;42.686;23.300;2022-12-07T11:30:41;94385.50;;;22.52;30.15
43217;BME280;60511;42.686;23.300;2022-12-07T11:35:04;94400.16;;;22.71;30.09